createdAt,value
2023-04-22T00:00:57.314Z,10.60
2023-04-22T00:03:26.482Z,10.20
2023-04-22T00:05:55.656Z,10.10
2023-04-22T00:08:25.737Z,11.10
2023-04-22T00:10:54.145Z,10.40
2023-04-22T00:13:24.697Z,11.60
2023-04-22T00:15:52.860Z,11.30
2023-04-22T00:18:21.378Z,10.30
2023-04-22T00:20:49.568Z,11.50
2023-04-22T00:23:17.819Z,10.90
2023-04-22T00:25:45.994Z,10.70
2023-04-22T00:28:14.246Z,11.00
2023-04-22T00:30:42.840Z,11.70
2023-04-22T00:33:11.163Z,10.30
2023-04-22T00:35:39.355Z,10.40
2023-04-22T00:38:07.552Z,9.70
2023-04-22T00:40:36.449Z,10.30
2023-04-22T00:43:04.654Z,11.00
2023-04-22T00:45:33.504Z,10.90
2023-04-22T00:48:01.917Z,10.20
2023-04-22T00:50:30.852Z,11.10
2023-04-22T00:52:59.053Z,10.70
2023-04-22T00:55:27.329Z,11.20
2023-04-22T00:57:55.929Z,10.30
2023-04-22T01:00:28.003Z,10.10
2023-04-22T01:02:57.017Z,10.70
2023-04-22T01:05:25.957Z,9.40
2023-04-22T01:15:08.901Z,8.70
2023-04-22T01:17:37.356Z,8.30
2023-04-22T01:20:10.183Z,8.60
2023-04-22T01:22:42.458Z,8.60
2023-04-22T01:25:11.569Z,7.90
2023-04-22T01:27:41.052Z,7.80
2023-04-22T01:30:09.688Z,8.80
2023-04-22T01:32:41.434Z,7.70
2023-04-22T01:35:10.318Z,7.50
2023-04-22T01:37:38.688Z,7.70
2023-04-22T01:40:08.009Z,7.60
2023-04-22T01:42:36.228Z,7.60
2023-04-22T01:45:05.844Z,7.90
2023-04-22T01:47:34.326Z,7.30
2023-04-22T01:50:02.796Z,7.40
2023-04-22T01:52:31.299Z,7.50
2023-04-22T01:55:04.096Z,8.20
2023-04-22T01:57:32.539Z,7.60
2023-04-22T02:00:01.578Z,8.20
2023-04-22T02:02:30.526Z,8.40
2023-04-22T02:04:58.769Z,7.90
2023-04-22T02:07:26.971Z,7.30
2023-04-22T02:09:55.248Z,8.40
2023-04-22T02:12:23.482Z,8.50
2023-04-22T02:14:51.644Z,8.10
2023-04-22T02:17:20.437Z,7.80
2023-04-22T02:19:48.604Z,8.00
2023-04-22T02:22:17.312Z,7.50
2023-04-22T02:24:45.897Z,7.50
2023-04-22T02:27:14.168Z,7.60
2023-04-22T02:29:42.696Z,7.90
2023-04-22T02:32:11.332Z,6.90
2023-04-22T02:34:39.781Z,7.80
2023-04-22T02:37:08.116Z,7.80
2023-04-22T02:39:36.959Z,8.10
2023-04-22T02:42:05.395Z,7.90
2023-04-22T02:44:34.071Z,7.80
2023-04-22T02:47:04.016Z,8.40
2023-04-22T02:49:34.627Z,8.40
2023-04-22T02:52:02.914Z,7.90
2023-04-22T02:54:31.353Z,8.30
2023-04-22T02:56:59.835Z,8.00
2023-04-22T02:59:28.136Z,7.30
2023-04-22T03:01:56.367Z,7.80
2023-04-22T03:04:36.113Z,7.00
2023-04-22T03:07:04.341Z,7.50
2023-04-22T03:09:33.195Z,7.20
2023-04-22T03:12:02.814Z,7.50
2023-04-22T03:14:31.568Z,7.50
2023-04-22T03:17:00.529Z,7.60
2023-04-22T03:19:29.092Z,8.30
2023-04-22T03:21:59.363Z,7.40
2023-04-22T03:24:28.026Z,6.90
2023-04-22T03:26:56.493Z,8.00
2023-04-22T03:29:24.778Z,7.70
2023-04-22T03:31:53.091Z,7.30
2023-04-22T03:34:21.450Z,8.30
2023-04-22T03:36:49.858Z,7.90
2023-04-22T03:39:18.176Z,8.40
2023-04-22T03:41:46.720Z,7.80
2023-04-22T03:44:14.938Z,7.60
2023-04-22T03:46:43.924Z,8.20
2023-04-22T03:49:24.653Z,8.40
2023-04-22T03:51:52.827Z,7.70
2023-04-22T03:54:22.699Z,7.80
2023-04-22T03:56:53.040Z,7.60
2023-04-22T03:59:22.569Z,7.70
2023-04-22T04:01:51.793Z,7.60
2023-04-22T04:04:24.005Z,7.40
2023-04-22T04:06:56.713Z,7.50
2023-04-22T04:09:25.007Z,7.20
2023-04-22T04:11:53.570Z,6.70
2023-04-22T04:14:21.827Z,7.50
2023-04-22T04:16:52.404Z,8.20
2023-04-22T04:19:30.695Z,7.50
2023-04-22T04:21:59.065Z,7.00
2023-04-22T04:24:28.968Z,7.60
2023-04-22T04:27:03.339Z,7.60
2023-04-22T04:29:37.959Z,7.50
2023-04-22T04:32:11.545Z,7.60
2023-04-22T04:34:39.952Z,7.70
2023-04-22T04:37:11.896Z,8.50
2023-04-22T04:39:50.700Z,8.70
2023-04-22T04:42:24.646Z,8.30
2023-04-22T04:44:58.663Z,8.30
2023-04-22T04:47:28.612Z,7.90
2023-04-22T04:49:59.177Z,8.50
2023-04-22T04:52:27.375Z,7.90
2023-04-22T04:54:55.882Z,7.90
2023-04-22T04:57:24.249Z,8.90
2023-04-22T04:59:53.202Z,8.30
2023-04-22T05:02:22.629Z,7.30
2023-04-22T05:04:52.426Z,7.50
2023-04-22T05:07:20.838Z,7.90
2023-04-22T05:09:50.046Z,8.30
2023-04-22T05:12:18.275Z,8.20
2023-04-22T05:14:46.837Z,8.00
2023-04-22T05:17:15.215Z,9.10
2023-04-22T05:19:43.975Z,8.50
2023-04-22T05:22:12.899Z,8.10
2023-04-22T05:24:41.432Z,8.50
2023-04-22T05:27:10.439Z,8.30
2023-04-22T05:29:39.037Z,10.10
2023-04-22T05:32:09.027Z,8.90
2023-04-22T05:34:37.853Z,9.40
2023-04-22T05:37:06.040Z,8.00
2023-04-22T05:39:35.337Z,8.00
2023-04-22T05:42:04.638Z,7.30
2023-04-22T05:44:32.922Z,7.30
2023-04-22T05:47:01.991Z,8.40
2023-04-22T05:49:30.517Z,7.00
2023-04-22T05:51:58.583Z,7.10
2023-04-22T05:54:30.920Z,6.90
2023-04-22T05:56:59.033Z,6.00
2023-04-22T05:59:27.294Z,4.90
2023-04-22T06:01:56.538Z,4.80
2023-04-22T06:04:26.150Z,4.60
2023-04-22T06:06:54.690Z,5.10
2023-04-22T06:09:22.867Z,4.40
2023-04-22T06:11:51.064Z,3.80
2023-04-22T06:14:19.700Z,4.00
2023-04-22T06:16:50.518Z,3.40
2023-04-22T06:19:18.743Z,4.40
2023-04-22T06:21:47.132Z,4.00
2023-04-22T06:24:15.622Z,3.60
2023-04-22T06:26:43.891Z,3.40
2023-04-22T06:29:13.489Z,4.20
2023-04-22T06:31:42.171Z,3.80
2023-04-22T06:34:11.180Z,3.60
2023-04-22T06:36:40.972Z,3.20
2023-04-22T06:39:11.249Z,4.40
2023-04-22T06:42:04.119Z,3.10
2023-04-22T06:44:52.863Z,3.50
2023-04-22T06:50:11.357Z,3.90
2023-04-22T06:52:47.305Z,3.50
2023-04-22T06:55:16.061Z,3.10
2023-04-22T06:57:44.453Z,3.50
2023-04-22T07:00:13.137Z,3.40
2023-04-22T07:02:42.263Z,3.50
2023-04-22T07:05:10.872Z,3.30
2023-04-22T07:07:39.245Z,4.10
2023-04-22T07:10:08.359Z,3.70
2023-04-22T07:15:09.572Z,3.00
2023-04-22T07:17:38.085Z,2.60
2023-04-22T07:20:07.205Z,3.70
2023-04-22T07:22:35.590Z,3.40
2023-04-22T07:25:04.579Z,3.40
2023-04-22T07:27:35.203Z,3.50
2023-04-22T07:30:06.252Z,3.00
2023-04-22T07:32:34.642Z,3.40
2023-04-22T07:35:02.988Z,2.90
2023-04-22T07:37:38.716Z,3.70
2023-04-22T07:40:11.708Z,3.80
2023-04-22T07:42:42.641Z,3.80
2023-04-22T07:45:13.068Z,3.80
2023-04-22T07:47:42.555Z,3.00
2023-04-22T07:50:14.925Z,3.30
2023-04-22T07:52:43.877Z,3.30
2023-04-22T07:55:12.728Z,2.90
2023-04-22T07:57:42.643Z,3.30
2023-04-22T08:00:12.720Z,3.30
2023-04-22T08:02:47.284Z,2.90
2023-04-22T08:05:16.887Z,2.90
2023-04-22T08:07:45.963Z,3.00
2023-04-22T08:10:15.614Z,2.70
2023-04-22T08:12:44.136Z,3.20
2023-04-22T08:15:12.598Z,2.60
2023-04-22T08:17:40.828Z,2.40
2023-04-22T08:20:15.602Z,2.80
2023-04-22T08:22:44.979Z,2.40
2023-04-22T08:25:13.147Z,1.80
2023-04-22T08:27:41.498Z,2.30
2023-04-22T08:30:10.141Z,2.00
2023-04-22T08:32:38.661Z,2.60
2023-04-22T08:35:07.403Z,6.70
2023-04-22T08:37:35.560Z,2.20
2023-04-22T08:40:04.922Z,1.90
2023-04-22T08:42:33.442Z,2.20
2023-04-22T08:45:04.777Z,2.00
2023-04-22T08:47:36.080Z,2.40
2023-04-22T08:50:04.616Z,2.10
2023-04-22T08:52:33.311Z,2.60
2023-04-22T08:55:02.214Z,2.90
2023-04-22T08:57:30.822Z,1.90
2023-04-22T08:59:59.078Z,2.20
2023-04-22T09:02:27.703Z,1.80
2023-04-22T09:04:55.864Z,1.80
2023-04-22T09:07:25.485Z,2.00
2023-04-22T09:09:57.658Z,1.70
2023-04-22T09:12:25.766Z,1.70
2023-04-22T09:14:54.830Z,2.00
2023-04-22T09:17:33.395Z,1.70
2023-04-22T09:20:02.554Z,1.80
2023-04-22T09:22:43.607Z,2.00
2023-04-22T09:25:18.200Z,2.70
2023-04-22T09:27:51.070Z,1.80
2023-04-22T09:30:29.385Z,1.70
2023-04-22T09:32:59.432Z,2.20
2023-04-22T09:35:28.769Z,1.70
2023-04-22T09:37:57.549Z,1.90
2023-04-22T09:40:25.784Z,1.80
2023-04-22T09:42:55.907Z,2.00
2023-04-22T09:45:39.877Z,1.90
2023-04-22T09:48:14.359Z,2.00
2023-04-22T09:50:50.350Z,2.10
2023-04-22T09:53:22.093Z,3.50
2023-04-22T09:55:54.468Z,2.70
2023-04-22T09:58:24.130Z,2.50
2023-04-22T10:00:59.433Z,1.80
2023-04-22T10:03:29.869Z,2.10
2023-04-22T10:05:59.123Z,1.80
2023-04-22T10:08:28.617Z,1.70
2023-04-22T10:10:56.828Z,2.20
2023-04-22T10:13:26.044Z,2.00
2023-04-22T10:15:55.332Z,2.50
2023-04-22T10:18:25.928Z,2.10
2023-04-22T10:20:54.454Z,2.60
2023-04-22T10:23:23.771Z,2.80
2023-04-22T10:25:55.671Z,2.90
2023-04-22T10:28:25.068Z,2.60
2023-04-22T10:30:53.774Z,2.30
2023-04-22T10:33:27.842Z,2.00
2023-04-22T10:36:09.447Z,2.00
2023-04-22T10:38:58.137Z,2.20
2023-04-22T10:41:29.546Z,2.20
2023-04-22T10:43:59.862Z,1.80
2023-04-22T10:46:32.269Z,3.30
2023-04-22T10:49:07.695Z,3.00
2023-04-22T10:51:42.561Z,2.10
2023-04-22T10:54:28.786Z,2.20
2023-04-22T10:57:09.049Z,2.20
2023-04-22T10:59:43.222Z,2.00
2023-04-22T11:02:32.107Z,2.50
2023-04-22T11:05:19.987Z,2.20
2023-04-22T11:07:56.098Z,1.40
2023-04-22T11:10:44.401Z,1.50
2023-04-22T11:13:21.501Z,2.00
2023-04-22T11:15:54.234Z,2.10
2023-04-22T11:18:27.282Z,2.40
2023-04-22T11:20:55.441Z,1.90
2023-04-22T11:23:26.653Z,1.90
2023-04-22T11:26:03.021Z,1.90
2023-04-22T11:28:31.521Z,2.30
2023-04-22T11:31:07.109Z,2.60
2023-04-22T11:33:36.240Z,1.70
2023-04-22T11:36:04.999Z,1.60
2023-04-22T11:38:33.937Z,1.30
2023-04-22T11:41:02.496Z,1.50
2023-04-22T11:43:31.241Z,2.00
2023-04-22T11:45:59.484Z,2.00
2023-04-22T11:48:27.742Z,1.90
2023-04-22T11:51:11.286Z,2.00
2023-04-22T11:53:41.362Z,2.10
2023-04-22T11:56:09.735Z,1.60
2023-04-22T11:58:41.748Z,2.80
2023-04-22T12:01:12.565Z,2.20
2023-04-22T12:03:40.995Z,2.30
2023-04-22T12:06:09.406Z,2.00
2023-04-22T12:08:42.584Z,1.30
2023-04-22T12:11:11.912Z,1.70
2023-04-22T12:13:42.455Z,1.70
2023-04-22T12:18:36.250Z,1.60
2023-04-22T12:21:04.394Z,1.70
2023-04-22T12:23:46.225Z,1.50
2023-04-22T12:26:17.274Z,2.20
2023-04-22T12:28:45.881Z,2.10
2023-04-22T12:31:14.524Z,1.80
2023-04-22T12:33:42.876Z,1.50
2023-04-22T12:36:14.113Z,1.70
2023-04-22T12:38:42.851Z,1.30
2023-04-22T12:41:10.994Z,1.30
2023-04-22T12:43:41.591Z,1.50
2023-04-22T12:46:10.221Z,2.10
2023-04-22T12:48:43.052Z,1.90
2023-04-22T12:51:14.296Z,1.70
2023-04-22T12:53:43.198Z,2.20
2023-04-22T12:56:13.870Z,2.40
2023-04-22T12:58:43.971Z,1.70
2023-04-22T13:01:15.752Z,1.50
2023-04-22T13:03:53.423Z,1.70
2023-04-22T13:06:23.386Z,1.60
2023-04-22T13:08:52.952Z,1.90
2023-04-22T13:11:24.550Z,2.30
2023-04-22T13:13:55.872Z,1.90
2023-04-22T13:16:25.502Z,2.00
2023-04-22T13:18:53.880Z,1.70
2023-04-22T13:21:29.021Z,1.40
2023-04-22T13:23:57.179Z,1.90
2023-04-22T13:26:28.388Z,1.80
2023-04-22T13:28:56.542Z,2.20
2023-04-22T13:31:24.650Z,2.90
2023-04-22T13:33:52.931Z,2.50
2023-04-22T13:36:21.152Z,2.10
2023-04-22T13:38:49.229Z,3.10
2023-04-22T13:41:45.864Z,8.10
2023-04-22T13:44:15.434Z,2.80
2023-04-22T13:46:43.860Z,2.60
2023-04-22T13:49:12.292Z,2.00
2023-04-22T13:51:41.444Z,2.10
2023-04-22T13:54:09.613Z,1.90
2023-04-22T13:56:37.818Z,1.90
2023-04-22T13:59:08.886Z,2.00
2023-04-22T14:01:38.012Z,1.60
2023-04-22T14:04:06.458Z,1.50
2023-04-22T14:06:34.969Z,1.80
2023-04-22T14:09:04.857Z,1.70
2023-04-22T14:11:34.391Z,1.50
2023-04-22T14:14:02.477Z,2.10
2023-04-22T14:16:31.780Z,1.90
2023-04-22T14:19:02.763Z,1.90
2023-04-22T14:21:31.381Z,2.30
2023-04-22T14:23:59.585Z,2.10
2023-04-22T14:26:32.757Z,1.60
2023-04-22T14:29:01.112Z,2.80
2023-04-22T14:31:29.589Z,1.70
2023-04-22T14:33:57.872Z,1.60
2023-04-22T14:36:26.914Z,2.00
2023-04-22T14:38:55.063Z,2.10
2023-04-22T14:41:23.223Z,1.70
2023-04-22T14:43:51.426Z,3.40
2023-04-22T14:46:19.528Z,2.40
2023-04-22T14:48:47.591Z,3.00
2023-04-22T14:51:15.701Z,3.20
2023-04-22T14:53:44.249Z,3.40
2023-04-22T14:56:12.390Z,3.40
2023-04-22T14:58:40.560Z,4.20
2023-04-22T15:01:08.780Z,3.50
2023-04-22T15:03:37.288Z,3.30
2023-04-22T15:06:05.793Z,3.30
2023-04-22T15:08:34.156Z,4.00
2023-04-22T15:11:02.384Z,4.60
2023-04-22T15:13:30.630Z,3.90
2023-04-22T15:15:59.236Z,4.40
2023-04-22T15:18:27.458Z,3.90
2023-04-22T15:20:55.653Z,4.60
2023-04-22T15:23:23.813Z,4.70
2023-04-22T15:25:51.965Z,4.00
2023-04-22T15:28:20.227Z,4.10
2023-04-22T15:30:50.190Z,3.80
2023-04-22T15:33:18.371Z,3.30
2023-04-22T15:35:49.509Z,3.40
2023-04-22T15:38:17.793Z,3.50
2023-04-22T15:40:46.079Z,3.50
2023-04-22T15:43:14.200Z,4.10
2023-04-22T15:45:42.632Z,4.10
2023-04-22T15:48:13.130Z,3.80
2023-04-22T15:50:44.576Z,3.90
2023-04-22T15:53:12.733Z,3.90
2023-04-22T15:55:41.037Z,3.90
2023-04-22T15:58:11.851Z,3.70
2023-04-22T16:00:40.070Z,3.90
2023-04-22T16:03:08.490Z,3.50
2023-04-22T16:05:36.799Z,3.20
2023-04-22T16:08:04.960Z,2.70
2023-04-22T16:10:33.336Z,3.20
2023-04-22T16:13:01.625Z,3.20
2023-04-22T16:15:29.946Z,3.60
2023-04-22T16:17:58.234Z,2.70
2023-04-22T16:20:26.373Z,3.60
2023-04-22T16:22:54.646Z,3.70
2023-04-22T16:25:22.857Z,3.70
2023-04-22T16:27:51.194Z,3.10
2023-04-22T16:30:19.488Z,3.30
2023-04-22T16:32:47.773Z,3.10
2023-04-22T16:35:18.364Z,2.30
2023-04-22T16:37:46.815Z,3.10
2023-04-22T16:40:14.889Z,2.40
2023-04-22T16:42:43.140Z,2.00
2023-04-22T16:45:11.575Z,2.20
2023-04-22T16:47:40.318Z,2.00
2023-04-22T16:50:12.278Z,2.10
2023-04-22T16:52:40.984Z,2.10
2023-04-22T16:55:09.174Z,2.30
2023-04-22T16:57:37.872Z,2.50
2023-04-22T17:00:06.558Z,1.80
2023-04-22T17:02:35.082Z,2.20
2023-04-22T17:05:04.561Z,2.20
2023-04-22T17:07:32.734Z,2.70
2023-04-22T17:10:00.828Z,2.70
2023-04-22T17:12:29.128Z,3.20
2023-04-22T17:14:57.386Z,2.70
2023-04-22T17:17:25.723Z,3.30
2023-04-22T17:19:53.943Z,4.50
2023-04-22T17:22:24.804Z,5.60
2023-04-22T17:24:52.968Z,5.90
2023-04-22T17:27:21.178Z,8.40
2023-04-22T17:29:49.218Z,9.60
2023-04-22T17:32:17.337Z,11.00
2023-04-22T17:34:45.718Z,13.40
2023-04-22T17:37:14.043Z,12.80
2023-04-22T17:39:42.282Z,13.10
2023-04-22T17:42:14.013Z,12.90
2023-04-22T17:44:42.751Z,14.90
2023-04-22T17:47:11.076Z,14.40
2023-04-22T17:49:39.572Z,14.20
2023-04-22T17:52:07.813Z,14.90
2023-04-22T17:54:37.274Z,14.30
2023-04-22T17:57:05.469Z,14.40
2023-04-22T17:59:33.675Z,15.50
2023-04-22T18:02:02.228Z,14.80
2023-04-22T18:04:33.635Z,15.50
2023-04-22T18:07:01.864Z,16.00
2023-04-22T18:09:30.372Z,19.40
2023-04-22T18:11:58.849Z,20.20
2023-04-22T18:14:27.657Z,19.40
2023-04-22T18:16:55.972Z,19.20
2023-04-22T18:19:24.190Z,19.80
2023-04-22T18:21:59.582Z,19.60
2023-04-22T18:24:28.782Z,19.60
2023-04-22T18:26:57.708Z,18.40
2023-04-22T18:29:28.416Z,19.50
2023-04-22T18:31:57.008Z,20.70
2023-04-22T18:34:25.595Z,19.80
2023-04-22T18:36:54.072Z,22.60
2023-04-22T18:39:22.431Z,22.90
2023-04-22T18:41:50.789Z,22.10
2023-04-22T18:44:19.378Z,34.90
2023-04-22T18:46:47.635Z,36.60
2023-04-22T18:49:15.683Z,35.20
2023-04-22T18:51:44.004Z,31.80
2023-04-22T18:54:12.311Z,29.70
2023-04-22T18:56:40.641Z,25.50
2023-04-22T18:59:08.816Z,23.70
2023-04-22T19:01:39.780Z,20.70
2023-04-22T19:04:11.976Z,19.70
2023-04-22T19:06:41.558Z,19.70
2023-04-22T19:09:09.799Z,17.80
2023-04-22T19:11:37.982Z,16.70
2023-04-22T19:14:06.500Z,20.80
2023-04-22T19:16:34.849Z,21.70
2023-04-22T19:19:03.074Z,22.20
2023-04-22T19:21:32.580Z,20.90
2023-04-22T19:24:02.381Z,21.80
2023-04-22T19:26:31.361Z,22.30
2023-04-22T19:28:59.740Z,21.80
2023-04-22T19:31:30.980Z,21.90
2023-04-22T19:34:05.315Z,21.10
2023-04-22T19:36:36.645Z,19.80
2023-04-22T19:39:06.241Z,20.90
2023-04-22T19:41:38.058Z,18.60
2023-04-22T19:44:07.229Z,19.00
2023-04-22T19:46:37.048Z,18.30
2023-04-22T19:49:06.979Z,20.10
2023-04-22T19:51:35.764Z,16.10
2023-04-22T19:54:10.960Z,15.10
2023-04-22T19:56:41.504Z,15.00
2023-04-22T19:59:09.723Z,13.80
2023-04-22T20:01:38.355Z,12.90
2023-04-22T20:04:06.844Z,12.70
2023-04-22T20:06:35.687Z,13.00
2023-04-22T20:09:05.535Z,12.00
2023-04-22T20:11:34.738Z,12.00
2023-04-22T20:14:03.256Z,12.00
2023-04-22T20:16:32.912Z,11.40
2023-04-22T20:19:04.681Z,11.40
2023-04-22T20:21:33.490Z,11.40
2023-04-22T20:24:04.022Z,11.20
2023-04-22T20:26:32.497Z,10.90
2023-04-22T20:29:00.880Z,11.40
2023-04-22T20:31:29.436Z,11.80
2023-04-22T20:33:58.175Z,11.60
2023-04-22T20:36:26.633Z,11.70
2023-04-22T20:38:55.020Z,11.60
2023-04-22T20:41:24.638Z,11.90
2023-04-22T20:43:53.126Z,13.10
2023-04-22T20:46:23.360Z,12.20
2023-04-22T20:48:51.732Z,12.50
2023-04-22T20:51:19.958Z,12.40
2023-04-22T20:53:48.452Z,11.60
2023-04-22T20:56:16.705Z,11.80
2023-04-22T20:58:45.063Z,11.90
2023-04-22T21:01:16.333Z,11.30
2023-04-22T21:03:48.139Z,12.40
2023-04-22T21:06:16.364Z,12.30
2023-04-22T21:08:44.448Z,11.30
2023-04-22T21:11:12.757Z,11.90
2023-04-22T21:13:42.556Z,12.30
2023-04-22T21:16:11.262Z,12.10
2023-04-22T21:18:40.819Z,13.00
2023-04-22T21:21:08.999Z,13.20
2023-04-22T21:23:37.169Z,14.60
2023-04-22T21:26:10.795Z,17.40
2023-04-22T21:28:39.501Z,17.90
2023-04-22T21:31:08.309Z,17.90
2023-04-22T21:33:48.546Z,18.10
2023-04-22T21:36:22.821Z,15.40
2023-04-22T21:38:51.081Z,14.90
2023-04-22T21:41:19.690Z,15.50
2023-04-22T21:43:47.784Z,14.10
2023-04-22T21:46:16.149Z,14.00
2023-04-22T21:48:44.403Z,13.50
2023-04-22T21:51:12.730Z,13.90
2023-04-22T21:53:40.922Z,13.00
2023-04-22T21:56:09.063Z,12.50
2023-04-22T21:58:39.629Z,12.80
2023-04-22T22:01:15.082Z,13.30
2023-04-22T22:03:44.587Z,13.70
2023-04-22T22:06:23.936Z,12.10
2023-04-22T22:11:44.329Z,12.60
2023-04-22T22:14:12.966Z,12.10
2023-04-22T22:16:41.338Z,12.00
2023-04-22T22:19:11.249Z,12.70
2023-04-22T22:21:39.470Z,12.10
2023-04-22T22:24:09.617Z,12.10
2023-04-22T22:26:41.164Z,10.90
2023-04-22T22:29:15.537Z,10.60
2023-04-22T22:31:47.661Z,10.90
2023-04-22T22:34:15.854Z,11.10
2023-04-22T22:36:44.061Z,10.20
2023-04-22T22:39:14.493Z,10.70
2023-04-22T22:41:44.011Z,10.40
2023-04-22T22:44:12.397Z,10.10
2023-04-22T22:46:43.804Z,9.70
2023-04-22T22:49:11.981Z,9.50
2023-04-22T22:51:40.307Z,9.20
2023-04-22T22:54:09.477Z,10.00
2023-04-22T22:56:38.299Z,9.10
2023-04-22T22:59:06.690Z,9.30
2023-04-22T23:01:34.920Z,9.40
2023-04-22T23:04:06.579Z,9.60
2023-04-22T23:06:39.473Z,8.20
2023-04-22T23:09:09.227Z,8.50
2023-04-22T23:11:37.379Z,9.10
2023-04-22T23:14:05.972Z,8.80
2023-04-22T23:16:35.226Z,9.10
2023-04-22T23:19:03.538Z,9.90
2023-04-22T23:21:33.919Z,10.50
2023-04-22T23:24:02.347Z,11.60
2023-04-22T23:26:30.858Z,11.20
2023-04-22T23:28:59.171Z,11.20
2023-04-22T23:31:27.754Z,11.50
2023-04-22T23:33:56.770Z,11.20
2023-04-22T23:36:25.325Z,10.80
2023-04-22T23:38:57.934Z,11.20
2023-04-22T23:43:54.643Z,10.80
2023-04-22T23:46:22.847Z,11.80
2023-04-22T23:48:54.056Z,11.40
2023-04-22T23:51:22.152Z,11.10
2023-04-22T23:53:50.370Z,11.70
2023-04-22T23:56:21.188Z,11.00
2023-04-22T23:58:50.218Z,11.50
